sensor_id;sensor_type;location;lat;lon;timestamp;pressure;altitude;pressure_sealevel;temperature;humidity
62152;BME280;48139;47.474;19.034;2023-05-09T00:02:51;101225.84;;;9.81;61.57
62152;BME280;48139;47.474;19.034;2023-05-09T00:05:55;101228.41;;;9.82;61.55
62152;BME280;48139;47.474;19.034;2023-05-09T00:08:58;101228.38;;;9.84;61.77
62152;BME280;48139;47.474;19.034;2023-05-09T00:12:00;101223.97;;;9.86;61.58
62152;BME280;48139;47.474;19.034;2023-05-09T00:15:04;101226.69;;;9.81;61.09
62152;BME280;48139;47.474;19.034;2023-05-09T00:18:09;101225.12;;;9.76;61.09
62152;BME280;48139;47.474;19.034;2023-05-09T00:21:12;101220.84;;;9.73;61.42
62152;BME280;48139;47.474;19.034;2023-05-09T00:24:15;101216.53;;;9.72;61.65
62152;BME280;48139;47.474;19.034;2023-05-09T00:27:17;101221.72;;;9.74;61.71
62152;BME280;48139;47.474;19.034;2023-05-09T00:30:20;101213.50;;;9.56;62.27
62152;BME280;48139;47.474;19.034;2023-05-09T00:33:22;101218.59;;;9.61;62.81
62152;BME280;48139;47.474;19.034;2023-05-09T00:36:28;101212.50;;;9.60;63.03
62152;BME280;48139;47.474;19.034;2023-05-09T00:39:30;101215.84;;;9.65;63.18
62152;BME280;48139;47.474;19.034;2023-05-09T00:42:33;101213.37;;;9.61;63.21
62152;BME280;48139;47.474;19.034;2023-05-09T00:45:36;101211.16;;;9.47;63.34
62152;BME280;48139;47.474;19.034;2023-05-09T00:48:39;101214.59;;;9.49;63.63
62152;BME280;48139;47.474;19.034;2023-05-09T00:51:42;101213.66;;;9.50;63.38
62152;BME280;48139;47.474;19.034;2023-05-09T00:54:45;101200.59;;;9.50;63.27
62152;BME280;48139;47.474;19.034;2023-05-09T00:57:47;101207.69;;;9.47;63.48
62152;BME280;48139;47.474;19.034;2023-05-09T01:00:50;101209.69;;;9.37;64.03
62152;BME280;48139;47.474;19.034;2023-05-09T01:03:53;101216.87;;;9.30;65.55
62152;BME280;48139;47.474;19.034;2023-05-09T01:20:49;101216.41;;;9.16;66.86
62152;BME280;48139;47.474;19.034;2023-05-09T01:27:19;101208.59;;;9.15;67.74
62152;BME280;48139;47.474;19.034;2023-05-09T01:30:25;101210.63;;;9.04;68.34
62152;BME280;48139;47.474;19.034;2023-05-09T01:33:31;101211.44;;;9.06;68.72
62152;BME280;48139;47.474;19.034;2023-05-09T01:36:36;101214.72;;;9.14;68.70
62152;BME280;48139;47.474;19.034;2023-05-09T01:39:41;101207.84;;;9.10;68.90
62152;BME280;48139;47.474;19.034;2023-05-09T01:42:57;101206.19;;;9.07;68.98
62152;BME280;48139;47.474;19.034;2023-05-09T01:46:03;101205.38;;;9.05;70.16
62152;BME280;48139;47.474;19.034;2023-05-09T01:49:07;101195.84;;;9.03;69.95
62152;BME280;48139;47.474;19.034;2023-05-09T01:52:13;101193.44;;;8.95;70.36
62152;BME280;48139;47.474;19.034;2023-05-09T01:55:18;101199.63;;;8.93;70.61
62152;BME280;48139;47.474;19.034;2023-05-09T01:58:24;101196.25;;;8.87;70.90
62152;BME280;48139;47.474;19.034;2023-05-09T02:01:28;101197.19;;;8.86;71.33
62152;BME280;48139;47.474;19.034;2023-05-09T02:04:31;101197.19;;;8.86;71.48
62152;BME280;48139;47.474;19.034;2023-05-09T02:07:35;101188.50;;;8.84;71.80
62152;BME280;48139;47.474;19.034;2023-05-09T02:10:38;101181.97;;;8.68;72.76
62152;BME280;48139;47.474;19.034;2023-05-09T02:13:41;101186.25;;;8.71;72.80
62152;BME280;48139;47.474;19.034;2023-05-09T02:16:44;101187.16;;;8.70;73.13
62152;BME280;48139;47.474;19.034;2023-05-09T02:19:47;101181.97;;;8.68;73.20
62152;BME280;48139;47.474;19.034;2023-05-09T02:22:49;101182.87;;;8.67;72.55
62152;BME280;48139;47.474;19.034;2023-05-09T02:25:53;101192.56;;;8.62;73.21
62152;BME280;48139;47.474;19.034;2023-05-09T02:28:57;101192.56;;;8.62;73.29
62152;BME280;48139;47.474;19.034;2023-05-09T02:32:00;101182.22;;;8.59;73.73
62152;BME280;48139;47.474;19.034;2023-05-09T02:35:06;101182.28;;;8.56;74.13
62152;BME280;48139;47.474;19.034;2023-05-09T02:38:11;101182.34;;;8.55;74.26
62152;BME280;48139;47.474;19.034;2023-05-09T02:41:14;101187.59;;;8.53;74.26
62152;BME280;48139;47.474;19.034;2023-05-09T02:44:17;101178.94;;;8.51;74.29
62152;BME280;48139;47.474;19.034;2023-05-09T02:47:20;101172.91;;;8.49;73.96
62152;BME280;48139;47.474;19.034;2023-05-09T02:50:23;101178.31;;;8.41;74.51
62152;BME280;48139;47.474;19.034;2023-05-09T02:53:26;101179.37;;;8.34;75.29
62152;BME280;48139;47.474;19.034;2023-05-09T02:56:29;101181.94;;;8.36;75.14
62152;BME280;48139;47.474;19.034;2023-05-09T02:59:32;101175.87;;;8.35;74.98
62152;BME280;48139;47.474;19.034;2023-05-09T03:02:36;101168.91;;;8.36;74.97
62152;BME280;48139;47.474;19.034;2023-05-09T03:05:39;101168.94;;;8.34;75.00
62152;BME280;48139;47.474;19.034;2023-05-09T03:08:42;101167.16;;;8.36;74.50
62152;BME280;48139;47.474;19.034;2023-05-09T03:11:45;101167.25;;;8.32;74.66
62152;BME280;48139;47.474;19.034;2023-05-09T03:14:47;101166.50;;;8.25;74.85
62152;BME280;48139;47.474;19.034;2023-05-09T03:17:50;101163.00;;;8.26;74.86
62152;BME280;48139;47.474;19.034;2023-05-09T03:20:52;101168.47;;;8.17;75.37
62152;BME280;48139;47.474;19.034;2023-05-09T03:23:55;101157.97;;;8.19;75.20
62152;BME280;48139;47.474;19.034;2023-05-09T03:26:58;101157.97;;;8.19;75.12
62152;BME280;48139;47.474;19.034;2023-05-09T03:30:00;101166.56;;;8.24;75.25
62152;BME280;48139;47.474;19.034;2023-05-09T03:33:03;101173.44;;;8.26;75.16
62152;BME280;48139;47.474;19.034;2023-05-09T03:36:06;101170.91;;;8.23;75.45
62152;BME280;48139;47.474;19.034;2023-05-09T03:39:09;101173.47;;;8.25;75.46
62152;BME280;48139;47.474;19.034;2023-05-09T03:42:13;101170.81;;;8.26;75.77
62152;BME280;48139;47.474;19.034;2023-05-09T03:45:16;101173.44;;;8.26;75.82
62152;BME280;48139;47.474;19.034;2023-05-09T03:48:19;101176.84;;;8.30;76.11
62152;BME280;48139;47.474;19.034;2023-05-09T03:51:22;101176.94;;;8.25;76.83
62152;BME280;48139;47.474;19.034;2023-05-09T03:54:24;101179.41;;;8.33;76.53
62152;BME280;48139;47.474;19.034;2023-05-09T03:57:27;101179.34;;;8.36;76.38
62152;BME280;48139;47.474;19.034;2023-05-09T04:00:30;101186.22;;;8.38;76.42
62152;BME280;48139;47.474;19.034;2023-05-09T04:03:34;101186.19;;;8.40;76.67
62152;BME280;48139;47.474;19.034;2023-05-09T04:06:39;101174.69;;;8.47;78.82
62152;BME280;48139;47.474;19.034;2023-05-09T04:09:42;101177.88;;;8.58;78.45
62152;BME280;48139;47.474;19.034;2023-05-09T04:12:45;101188.28;;;8.61;76.37
62152;BME280;48139;47.474;19.034;2023-05-09T04:15:49;101189.56;;;8.77;79.05
62152;BME280;48139;47.474;19.034;2023-05-09T04:18:51;101171.88;;;8.87;77.93
62152;BME280;48139;47.474;19.034;2023-05-09T04:21:54;101183.97;;;8.91;76.63
62152;BME280;48139;47.474;19.034;2023-05-09T04:24:56;101186.66;;;8.88;76.23
62152;BME280;48139;47.474;19.034;2023-05-09T04:28:00;101185.56;;;8.97;75.72
62152;BME280;48139;47.474;19.034;2023-05-09T04:31:03;101185.44;;;9.01;74.98
62152;BME280;48139;47.474;19.034;2023-05-09T04:34:06;101185.91;;;9.15;73.68
62152;BME280;48139;47.474;19.034;2023-05-09T04:37:09;101186.84;;;9.13;73.98
62152;BME280;48139;47.474;19.034;2023-05-09T04:40:12;101177.69;;;9.29;72.15
62152;BME280;48139;47.474;19.034;2023-05-09T04:43:16;101184.72;;;9.27;72.62
62152;BME280;48139;47.474;19.034;2023-05-09T04:46:19;101202.13;;;9.28;72.83
62152;BME280;48139;47.474;19.034;2023-05-09T04:49:23;101194.06;;;9.36;72.44
62152;BME280;48139;47.474;19.034;2023-05-09T04:52:25;101184.56;;;9.31;72.78
62152;BME280;48139;47.474;19.034;2023-05-09T04:55:28;101189.50;;;9.42;72.07
62152;BME280;48139;47.474;19.034;2023-05-09T04:58:30;101187.84;;;9.40;72.43
62152;BME280;48139;47.474;19.034;2023-05-09T05:01:36;101190.19;;;9.49;72.36
62152;BME280;48139;47.474;19.034;2023-05-09T05:04:39;101192.91;;;9.44;72.06
62152;BME280;48139;47.474;19.034;2023-05-09T05:07:42;101184.03;;;9.50;73.01
62152;BME280;48139;47.474;19.034;2023-05-09T05:10:45;101189.69;;;9.65;71.86
62152;BME280;48139;47.474;19.034;2023-05-09T05:13:49;101198.03;;;9.78;71.70
62152;BME280;48139;47.474;19.034;2023-05-09T05:16:52;101199.31;;;9.93;70.36
62152;BME280;48139;47.474;19.034;2023-05-09T05:19:56;101203.44;;;10.00;69.46
62152;BME280;48139;47.474;19.034;2023-05-09T05:23:01;101197.88;;;10.10;69.20
62152;BME280;48139;47.474;19.034;2023-05-09T05:26:03;101199.44;;;10.16;68.43
62152;BME280;48139;47.474;19.034;2023-05-09T05:29:07;101200.75;;;10.03;68.58
62152;BME280;48139;47.474;19.034;2023-05-09T05:32:09;101203.75;;;10.19;67.60
62152;BME280;48139;47.474;19.034;2023-05-09T05:35:12;101200.66;;;10.34;66.76
62152;BME280;48139;47.474;19.034;2023-05-09T05:38:15;101204.53;;;10.48;67.09
62152;BME280;48139;47.474;19.034;2023-05-09T05:41:19;101202.16;;;10.67;66.69
62152;BME280;48139;47.474;19.034;2023-05-09T05:44:23;101194.72;;;10.80;64.23
62152;BME280;48139;47.474;19.034;2023-05-09T05:47:25;101196.37;;;10.82;65.07
62152;BME280;48139;47.474;19.034;2023-05-09T05:50:28;101189.97;;;10.91;64.20
62152;BME280;48139;47.474;19.034;2023-05-09T05:53:31;101202.25;;;10.89;64.53
62152;BME280;48139;47.474;19.034;2023-05-09T05:56:34;101201.09;;;10.98;64.44
62152;BME280;48139;47.474;19.034;2023-05-09T05:59:37;101201.59;;;11.07;63.53
62152;BME280;48139;47.474;19.034;2023-05-09T06:02:43;101203.69;;;11.22;63.32
62152;BME280;48139;47.474;19.034;2023-05-09T06:05:48;101200.84;;;11.52;61.90
62152;BME280;48139;47.474;19.034;2023-05-09T06:08:51;101201.06;;;11.69;60.97
62152;BME280;48139;47.474;19.034;2023-05-09T06:11:54;101198.59;;;11.88;60.05
62152;BME280;48139;47.474;19.034;2023-05-09T06:14:57;101186.03;;;11.96;57.67
62152;BME280;48139;47.474;19.034;2023-05-09T06:18:00;101199.22;;;11.94;58.05
62152;BME280;48139;47.474;19.034;2023-05-09T06:21:03;101199.97;;;11.98;58.20
62152;BME280;48139;47.474;19.034;2023-05-09T06:24:06;101203.59;;;12.17;57.15
62152;BME280;48139;47.474;19.034;2023-05-09T06:27:18;101189.41;;;12.21;56.92
62152;BME280;48139;47.474;19.034;2023-05-09T06:30:21;101190.38;;;12.19;57.04
62152;BME280;48139;47.474;19.034;2023-05-09T06:33:28;101187.84;;;12.37;57.81
62152;BME280;48139;47.474;19.034;2023-05-09T06:36:30;101179.09;;;12.59;55.75
62152;BME280;48139;47.474;19.034;2023-05-09T06:39:33;101182.50;;;12.81;54.88
62152;BME280;48139;47.474;19.034;2023-05-09T06:42:36;101184.19;;;13.02;54.25
62152;BME280;48139;47.474;19.034;2023-05-09T06:45:38;101181.06;;;13.14;53.76
62152;BME280;48139;47.474;19.034;2023-05-09T06:48:41;101176.47;;;13.38;53.24
62152;BME280;48139;47.474;19.034;2023-05-09T06:51:43;101170.34;;;13.56;53.13
62152;BME280;48139;47.474;19.034;2023-05-09T06:54:46;101169.94;;;13.65;52.31
62152;BME280;48139;47.474;19.034;2023-05-09T06:57:48;101170.28;;;13.77;51.52
62152;BME280;48139;47.474;19.034;2023-05-09T07:00:51;101163.09;;;14.16;50.09
62152;BME280;48139;47.474;19.034;2023-05-09T07:03:54;101165.78;;;14.50;48.86
62152;BME280;48139;47.474;19.034;2023-05-09T07:06:56;101163.00;;;14.71;47.71
62152;BME280;48139;47.474;19.034;2023-05-09T07:10:00;101159.44;;;15.22;47.62
62152;BME280;48139;47.474;19.034;2023-05-09T07:13:13;101154.09;;;15.39;46.98
62152;BME280;48139;47.474;19.034;2023-05-09T07:16:16;101153.88;;;15.11;47.37
62152;BME280;48139;47.474;19.034;2023-05-09T07:19:20;101157.66;;;14.72;47.58
62152;BME280;48139;47.474;19.034;2023-05-09T07:22:22;101154.41;;;14.67;49.04
62152;BME280;48139;47.474;19.034;2023-05-09T07:25:25;101142.69;;;14.73;48.60
62152;BME280;48139;47.474;19.034;2023-05-09T07:28:27;101144.41;;;14.74;47.90
62152;BME280;48139;47.474;19.034;2023-05-09T07:31:30;101149.19;;;14.83;48.29
62152;BME280;48139;47.474;19.034;2023-05-09T07:34:32;101141.09;;;15.03;47.58
62152;BME280;48139;47.474;19.034;2023-05-09T07:37:35;101130.97;;;15.11;47.93
62152;BME280;48139;47.474;19.034;2023-05-09T07:40:37;101127.22;;;15.15;48.92
62152;BME280;48139;47.474;19.034;2023-05-09T07:43:40;101129.72;;;15.34;47.78
62152;BME280;48139;47.474;19.034;2023-05-09T07:46:43;101130.84;;;15.30;46.78
62152;BME280;48139;47.474;19.034;2023-05-09T07:49:45;101126.81;;;15.23;47.30
62152;BME280;48139;47.474;19.034;2023-05-09T07:52:49;101129.81;;;15.32;46.94
62152;BME280;48139;47.474;19.034;2023-05-09T07:55:52;101123.34;;;15.22;46.93
62152;BME280;48139;47.474;19.034;2023-05-09T07:58:55;101128.28;;;15.28;47.17
62152;BME280;48139;47.474;19.034;2023-05-09T08:01:57;101108.94;;;15.44;48.00
62152;BME280;48139;47.474;19.034;2023-05-09T08:05:00;101107.78;;;15.65;47.22
62152;BME280;48139;47.474;19.034;2023-05-09T08:08:03;101100.44;;;15.86;46.61
62152;BME280;48139;47.474;19.034;2023-05-09T08:11:06;101104.41;;;16.08;50.33
62152;BME280;48139;47.474;19.034;2023-05-09T08:14:09;101095.63;;;16.08;47.40
62152;BME280;48139;47.474;19.034;2023-05-09T08:17:11;101100.06;;;16.07;44.94
62152;BME280;48139;47.474;19.034;2023-05-09T08:20:14;101098.41;;;16.21;46.62
62152;BME280;48139;47.474;19.034;2023-05-09T08:23:16;101085.53;;;16.14;46.35
62152;BME280;48139;47.474;19.034;2023-05-09T08:26:19;101091.16;;;16.38;46.12
62152;BME280;48139;47.474;19.034;2023-05-09T08:29:24;101080.78;;;16.49;44.74
62152;BME280;48139;47.474;19.034;2023-05-09T08:32:26;101080.41;;;16.71;46.34
62152;BME280;48139;47.474;19.034;2023-05-09T08:35:29;101085.41;;;16.76;44.11
62152;BME280;48139;47.474;19.034;2023-05-09T08:38:31;101085.69;;;16.71;44.14
62152;BME280;48139;47.474;19.034;2023-05-09T08:41:34;101077.91;;;16.54;45.55
62152;BME280;48139;47.474;19.034;2023-05-09T08:44:37;101076.53;;;16.77;45.44
62152;BME280;48139;47.474;19.034;2023-05-09T08:47:40;101078.03;;;16.67;43.78
62152;BME280;48139;47.474;19.034;2023-05-09T08:50:43;101078.28;;;16.48;44.96
62152;BME280;48139;47.474;19.034;2023-05-09T08:53:46;101066.03;;;17.04;44.88
62152;BME280;48139;47.474;19.034;2023-05-09T08:56:49;101073.87;;;17.87;41.79
62152;BME280;48139;47.474;19.034;2023-05-09T08:59:52;101067.34;;;18.05;42.67
62152;BME280;48139;47.474;19.034;2023-05-09T09:02:57;101064.34;;;17.85;41.81
62152;BME280;48139;47.474;19.034;2023-05-09T09:06:02;101064.66;;;17.80;41.36
62152;BME280;48139;47.474;19.034;2023-05-09T09:09:06;101063.41;;;18.76;40.28
62152;BME280;48139;47.474;19.034;2023-05-09T09:12:14;101054.03;;;19.45;38.12
62152;BME280;48139;47.474;19.034;2023-05-09T09:15:18;101052.72;;;18.77;38.31
62152;BME280;48139;47.474;19.034;2023-05-09T09:18:27;101047.16;;;18.17;39.85
62152;BME280;48139;47.474;19.034;2023-05-09T09:21:30;101052.47;;;18.30;39.80
62152;BME280;48139;47.474;19.034;2023-05-09T09:24:34;101040.19;;;18.02;40.16
62152;BME280;48139;47.474;19.034;2023-05-09T09:27:37;101048.09;;;18.16;40.38
62152;BME280;48139;47.474;19.034;2023-05-09T09:30:44;101043.75;;;18.40;39.17
62152;BME280;48139;47.474;19.034;2023-05-09T09:33:49;101053.91;;;18.21;38.78
62152;BME280;48139;47.474;19.034;2023-05-09T09:36:52;101046.44;;;18.01;39.59
62152;BME280;48139;47.474;19.034;2023-05-09T09:39:55;101043.75;;;18.40;40.57
62152;BME280;48139;47.474;19.034;2023-05-09T09:42:58;101039.31;;;18.53;37.37
62152;BME280;48139;47.474;19.034;2023-05-09T09:46:02;101047.81;;;18.59;37.03
62152;BME280;48139;47.474;19.034;2023-05-09T09:49:08;101059.28;;;18.72;36.64
62152;BME280;48139;47.474;19.034;2023-05-09T09:52:10;101047.78;;;18.21;38.31
62152;BME280;48139;47.474;19.034;2023-05-09T09:55:13;101035.47;;;18.45;37.57
62152;BME280;48139;47.474;19.034;2023-05-09T09:58:16;101040.47;;;18.75;37.83
62152;BME280;48139;47.474;19.034;2023-05-09T10:01:19;101033.19;;;18.66;36.18
62152;BME280;48139;47.474;19.034;2023-05-09T10:04:23;101038.06;;;18.72;36.21
62152;BME280;48139;47.474;19.034;2023-05-09T10:07:32;101024.03;;;18.70;36.30
62152;BME280;48139;47.474;19.034;2023-05-09T10:10:36;101009.97;;;18.93;36.92
62152;BME280;48139;47.474;19.034;2023-05-09T10:13:38;101018.28;;;19.61;35.80
62152;BME280;48139;47.474;19.034;2023-05-09T10:16:42;101013.34;;;19.68;35.37
62152;BME280;48139;47.474;19.034;2023-05-09T10:19:46;101014.47;;;19.77;34.43
62152;BME280;48139;47.474;19.034;2023-05-09T10:22:58;101014.78;;;19.24;35.85
62152;BME280;48139;47.474;19.034;2023-05-09T10:26:22;101024.44;;;18.89;36.76
62152;BME280;48139;47.474;19.034;2023-05-09T10:29:28;101012.44;;;18.96;37.55
62152;BME280;48139;47.474;19.034;2023-05-09T10:35:46;101007.78;;;18.62;37.39
62152;BME280;48139;47.474;19.034;2023-05-09T10:38:52;100999.53;;;19.15;37.09
62152;BME280;48139;47.474;19.034;2023-05-09T10:41:57;101001.94;;;19.18;36.53
62152;BME280;48139;47.474;19.034;2023-05-09T10:45:00;101002.16;;;18.91;36.25
62152;BME280;48139;47.474;19.034;2023-05-09T10:48:05;101011.72;;;19.18;35.19
62152;BME280;48139;47.474;19.034;2023-05-09T10:51:10;101011.16;;;19.25;34.95
62152;BME280;48139;47.474;19.034;2023-05-09T10:54:15;101001.44;;;19.13;35.41
62152;BME280;48139;47.474;19.034;2023-05-09T10:57:30;101002.31;;;19.01;36.33
62152;BME280;48139;47.474;19.034;2023-05-09T11:00:40;101005.28;;;18.60;36.58
62152;BME280;48139;47.474;19.034;2023-05-09T11:03:56;101003.97;;;18.40;37.19
62152;BME280;48139;47.474;19.034;2023-05-09T11:06:59;101011.53;;;18.72;36.24
62152;BME280;48139;47.474;19.034;2023-05-09T11:10:09;101005.53;;;18.30;37.61
62152;BME280;48139;47.474;19.034;2023-05-09T11:13:12;100996.63;;;18.19;37.57
62152;BME280;48139;47.474;19.034;2023-05-09T11:16:14;100990.78;;;18.01;36.85
62152;BME280;48139;47.474;19.034;2023-05-09T11:22:51;100980.75;;;18.57;35.29
62152;BME280;48139;47.474;19.034;2023-05-09T11:26:03;100978.38;;;18.14;36.11
62152;BME280;48139;47.474;19.034;2023-05-09T11:29:07;100981.53;;;17.94;37.38
62152;BME280;48139;47.474;19.034;2023-05-09T11:32:14;100971.59;;;18.10;38.00
62152;BME280;48139;47.474;19.034;2023-05-09T11:35:19;100969.91;;;18.47;36.96
62152;BME280;48139;47.474;19.034;2023-05-09T11:38:22;100976.69;;;18.38;37.25
62152;BME280;48139;47.474;19.034;2023-05-09T11:41:27;100971.06;;;18.56;36.37
62152;BME280;48139;47.474;19.034;2023-05-09T11:44:30;100965.53;;;18.71;35.99
62152;BME280;48139;47.474;19.034;2023-05-09T11:47:38;100965.13;;;18.39;36.29
62152;BME280;48139;47.474;19.034;2023-05-09T11:50:41;100967.34;;;18.33;38.09
62152;BME280;48139;47.474;19.034;2023-05-09T11:53:44;100956.53;;;18.48;35.93
62152;BME280;48139;47.474;19.034;2023-05-09T11:56:48;100952.81;;;18.13;37.44
62152;BME280;48139;47.474;19.034;2023-05-09T11:59:51;100959.31;;;18.09;38.27
62152;BME280;48139;47.474;19.034;2023-05-09T12:02:54;100956.66;;;18.22;38.50
62152;BME280;48139;47.474;19.034;2023-05-09T12:05:57;100942.34;;;17.99;38.65
62152;BME280;48139;47.474;19.034;2023-05-09T12:08:59;100937.66;;;18.02;39.08
62152;BME280;48139;47.474;19.034;2023-05-09T12:12:10;100938.91;;;18.47;38.27
62152;BME280;48139;47.474;19.034;2023-05-09T12:15:13;100944.75;;;18.65;38.71
62152;BME280;48139;47.474;19.034;2023-05-09T12:18:17;100934.34;;;18.37;37.97
62152;BME280;48139;47.474;19.034;2023-05-09T12:21:19;100936.06;;;18.12;38.45
62152;BME280;48139;47.474;19.034;2023-05-09T12:24:27;100934.78;;;18.18;38.22
62152;BME280;48139;47.474;19.034;2023-05-09T12:27:30;100925.22;;;18.53;38.49
62152;BME280;48139;47.474;19.034;2023-05-09T12:30:34;100922.78;;;18.25;38.07
62152;BME280;48139;47.474;19.034;2023-05-09T12:33:37;100918.47;;;17.99;38.65
62152;BME280;48139;47.474;19.034;2023-05-09T12:36:42;100914.31;;;18.20;37.95
62152;BME280;48139;47.474;19.034;2023-05-09T12:40:07;100912.66;;;18.68;38.15
62152;BME280;48139;47.474;19.034;2023-05-09T12:43:11;100910.12;;;18.79;37.06
62152;BME280;48139;47.474;19.034;2023-05-09T12:46:19;100912.13;;;18.76;37.55
62152;BME280;48139;47.474;19.034;2023-05-09T12:49:22;100900.59;;;18.64;38.65
62152;BME280;48139;47.474;19.034;2023-05-09T12:52:31;100894.97;;;18.43;38.67
62152;BME280;48139;47.474;19.034;2023-05-09T12:55:38;100892.59;;;18.15;39.10
62152;BME280;48139;47.474;19.034;2023-05-09T13:01:57;100888.31;;;18.25;38.66
62152;BME280;48139;47.474;19.034;2023-05-09T13:05:07;100883.38;;;18.70;39.49
62152;BME280;48139;47.474;19.034;2023-05-09T13:08:11;100879.03;;;18.69;38.39
62152;BME280;48139;47.474;19.034;2023-05-09T13:11:13;100882.62;;;18.68;38.94
62152;BME280;48139;47.474;19.034;2023-05-09T13:14:20;100874.66;;;18.68;39.15
62152;BME280;48139;47.474;19.034;2023-05-09T13:17:23;100868.03;;;19.10;37.92
62152;BME280;48139;47.474;19.034;2023-05-09T13:20:26;100865.25;;;19.35;36.69
62152;BME280;48139;47.474;19.034;2023-05-09T13:23:28;100862.06;;;19.54;35.23
62152;BME280;48139;47.474;19.034;2023-05-09T13:26:31;100854.50;;;19.94;34.83
62152;BME280;48139;47.474;19.034;2023-05-09T13:29:39;100856.09;;;20.07;35.75
62152;BME280;48139;47.474;19.034;2023-05-09T13:32:43;100859.81;;;19.83;36.04
62152;BME280;48139;47.474;19.034;2023-05-09T13:35:48;100848.09;;;19.39;37.18
62152;BME280;48139;47.474;19.034;2023-05-09T13:38:51;100856.63;;;18.97;37.20
62152;BME280;48139;47.474;19.034;2023-05-09T13:41:53;100854.69;;;18.75;37.55
62152;BME280;48139;47.474;19.034;2023-05-09T13:45:02;100854.22;;;18.57;38.35
62152;BME280;48139;47.474;19.034;2023-05-09T13:48:04;100849.97;;;18.67;38.82
62152;BME280;48139;47.474;19.034;2023-05-09T13:51:07;100850.56;;;18.71;39.29
62152;BME280;48139;47.474;19.034;2023-05-09T13:54:11;100843.28;;;18.49;39.21
62152;BME280;48139;47.474;19.034;2023-05-09T13:57:18;100836.75;;;18.42;39.98
62152;BME280;48139;47.474;19.034;2023-05-09T14:00:21;100829.44;;;18.33;40.13
62152;BME280;48139;47.474;19.034;2023-05-09T14:03:26;100829.03;;;18.26;40.45
62152;BME280;48139;47.474;19.034;2023-05-09T14:06:28;100825.78;;;18.10;40.53
62152;BME280;48139;47.474;19.034;2023-05-09T14:09:32;100817.81;;;18.23;40.67
62152;BME280;48139;47.474;19.034;2023-05-09T14:12:40;100814.22;;;18.11;40.58
62152;BME280;48139;47.474;19.034;2023-05-09T14:15:46;100812.19;;;18.14;41.27
62152;BME280;48139;47.474;19.034;2023-05-09T14:18:48;100818.34;;;18.15;40.38
62152;BME280;48139;47.474;19.034;2023-05-09T14:21:50;100818.12;;;18.05;41.09
62152;BME280;48139;47.474;19.034;2023-05-09T14:24:53;100820.41;;;17.99;39.42
62152;BME280;48139;47.474;19.034;2023-05-09T14:27:58;100811.25;;;18.03;39.19
62152;BME280;48139;47.474;19.034;2023-05-09T14:31:01;100802.59;;;18.25;38.53
62152;BME280;48139;47.474;19.034;2023-05-09T14:34:04;100807.47;;;18.31;39.34
62152;BME280;48139;47.474;19.034;2023-05-09T14:37:07;100803.81;;;18.44;39.85
62152;BME280;48139;47.474;19.034;2023-05-09T14:40:15;100802.31;;;18.66;39.85
62152;BME280;48139;47.474;19.034;2023-05-09T14:43:18;100802.25;;;18.78;39.51
62152;BME280;48139;47.474;19.034;2023-05-09T14:46:20;100797.34;;;18.61;39.71
62152;BME280;48139;47.474;19.034;2023-05-09T14:49:25;100795.75;;;18.59;40.10
62152;BME280;48139;47.474;19.034;2023-05-09T14:52:28;100796.25;;;18.51;40.38
62152;BME280;48139;47.474;19.034;2023-05-09T14:55:30;100803.66;;;18.35;40.91
62152;BME280;48139;47.474;19.034;2023-05-09T14:58:34;100794.53;;;18.26;41.45
62152;BME280;48139;47.474;19.034;2023-05-09T15:01:36;100791.47;;;18.20;41.33
62152;BME280;48139;47.474;19.034;2023-05-09T15:04:39;100781.25;;;18.02;41.18
62152;BME280;48139;47.474;19.034;2023-05-09T15:07:45;100787.75;;;17.86;41.71
62152;BME280;48139;47.474;19.034;2023-05-09T15:10:47;100783.59;;;17.69;42.00
62152;BME280;48139;47.474;19.034;2023-05-09T15:13:52;100776.94;;;17.76;42.44
62152;BME280;48139;47.474;19.034;2023-05-09T15:16:54;100780.75;;;17.85;42.06
62152;BME280;48139;47.474;19.034;2023-05-09T15:20:01;100767.97;;;18.15;40.84
62152;BME280;48139;47.474;19.034;2023-05-09T15:23:04;100762.47;;;18.42;41.37
62152;BME280;48139;47.474;19.034;2023-05-09T15:26:08;100764.31;;;18.65;40.99
62152;BME280;48139;47.474;19.034;2023-05-09T15:29:13;100753.50;;;18.79;40.31
62152;BME280;48139;47.474;19.034;2023-05-09T15:32:16;100762.09;;;18.94;40.10
62152;BME280;48139;47.474;19.034;2023-05-09T15:35:19;100757.69;;;19.06;40.06
62152;BME280;48139;47.474;19.034;2023-05-09T15:38:21;100750.44;;;18.97;39.90
62152;BME280;48139;47.474;19.034;2023-05-09T15:41:24;100752.59;;;18.91;39.09
62152;BME280;48139;47.474;19.034;2023-05-09T15:44:27;100747.38;;;18.55;40.46
62152;BME280;48139;47.474;19.034;2023-05-09T15:47:29;100753.56;;;18.30;41.06
62152;BME280;48139;47.474;19.034;2023-05-09T15:50:32;100749.41;;;18.15;41.30
